罗盘
风向 的 风向 270° Goch-Asperden Airport 10/28
风: 7 kt, 3 beaufort

7 kt

1 kt
改变
0 1.000 2.000 3.000 4.000 5.000
BKN 1.000 ft
OVC 2.400 ft
METAR EDLV 171350Z 27007KT 4700 BR BKN010 OVC024 21/19 Q1011

METAR Goch-Asperden Airport - EDLG

Goch-Asperden Airport是Goch,德国中的小机场。 该机场有一条跑道: 10/28. 该领域的国际民航组织标志是EDLG.

这份报告是针对2022年8月17日 15:50, 当地时间在Weeze Airport进行的。

机场观察

风向为270°,速度为7 kt。

可见度为4,7 km。

有碎云在1.000 ft的高度 和 乌云密布在2.400 ft的高度。 破损或更高的上限为1.000 ft。

当前天气为薄雾。 温度和风寒是21 °C。 露点为19 °C,相对湿度为88%。 海平面上的气压为1011 hPa (QNH)。

白天

今天,太阳从06:23升起,在20:55降落。 这适用于Goch-Asperden Airport,世界夏令时可能有所不同。 当地时间与世界标准时间之间的时差为+2 小时。 夏令时目前正在进行中。

公司介绍

我们没有关于这个机场的公司信息。

体会

到Vliegles.nl去找飞行课程,跳伞和其他飞行体验。 浏览页面,了解Goch-Asperden Airport附近所有可用的活动。 你也可以使用搜索功能来寻找你所在地附近的特定飞行课程、跳伞或其他飞行体验。

跑道

Id 标题 侧风 逆风 侧风 %
10/28 099°-279° 1 kt 7 kt 16 %

逆风成分最大的方向会被突出显示,并用于横风计算。 这并不一定意味着这个方向在使用。

乌云

1.000 ft BKN 碎云
2.400 ft OVC 乌云密布

温度 & 天气

天气 薄雾
温度 21 °C
露点 19 °C
相对湿度 88%
Kp-index 1  

白天

日出
06:24
中午
13:39
日落
20:54 (4h 34m)

小工具

你想在你的网站上有一个关于Goch-Asperden Airport的当前航空天气(METAR)的小部件吗?

</> 显示HTML代码

我们和第三方通过cookies跟踪您在我们网站上的上网行为。如果您继续,我们认为您同意我们的cookie政策。 了解更多